Noctor, Kentucky
Current Conditions -  °F | °C
As of 6:53 PM on Sunday 25 Jan 2015 (Local Time) from KJKL Reporting Station
Overcast Overcast  
Wind Chill: 42°   Ceiling: 5500
Heat Index: 45°   Visibility: 10mi
Dew Point: 34°   Wind: 6mph
Humidity: 65%   Direction: 140°SE
Pressure: 29.68"   Gusts: NA
Location:  37.532°N, 83.3068°W
Report Text: KJKL 252353Z AUTO 14005KT 10SM OVC055 07/01 A2968 RMK AO2 RAE42 SLP055 P0000 60000 T00720011 10100 20072 51007
Loading
Personal Weather Stations






























Interactive Weather Map New forecast layout! Learn more

10-Day Weather Forecast

Advertisements
Track Severe Weather on mobile